sensor_id;sensor_type;location;lat;lon;timestamp;temperature;humidity
11609;DHT22;5860;52.018;8.536;2023-02-28T00:01:30;-0.90;99.90
11609;DHT22;5860;52.018;8.536;2023-02-28T00:03:58;-0.80;99.90
11609;DHT22;5860;52.018;8.536;2023-02-28T00:06:26;-0.70;99.90
11609;DHT22;5860;52.018;8.536;2023-02-28T00:08:53;-0.60;99.90
11609;DHT22;5860;52.018;8.536;2023-02-28T00:11:20;-0.60;99.90
11609;DHT22;5860;52.018;8.536;2023-02-28T00:13:48;-0.60;99.90
11609;DHT22;5860;52.018;8.536;2023-02-28T00:16:19;-0.70;99.90
11609;DHT22;5860;52.018;8.536;2023-02-28T00:18:46;-0.70;99.90
11609;DHT22;5860;52.018;8.536;2023-02-28T00:21:18;-0.70;99.90
11609;DHT22;5860;52.018;8.536;2023-02-28T00:23:46;-0.60;99.90
11609;DHT22;5860;52.018;8.536;2023-02-28T00:26:13;-0.60;99.90
11609;DHT22;5860;52.018;8.536;2023-02-28T00:28:40;-0.60;99.90
11609;DHT22;5860;52.018;8.536;2023-02-28T00:31:07;-0.70;99.90
11609;DHT22;5860;52.018;8.536;2023-02-28T00:33:34;-0.70;99.90
11609;DHT22;5860;52.018;8.536;2023-02-28T00:36:03;-0.80;99.90
11609;DHT22;5860;52.018;8.536;2023-02-28T00:38:31;-0.80;99.90
11609;DHT22;5860;52.018;8.536;2023-02-28T00:40:58;-0.90;99.90
11609;DHT22;5860;52.018;8.536;2023-02-28T00:43:35;-0.90;99.90
11609;DHT22;5860;52.018;8.536;2023-02-28T00:46:03;-1.00;99.90
11609;DHT22;5860;52.018;8.536;2023-02-28T00:48:31;-1.00;99.90
11609;DHT22;5860;52.018;8.536;2023-02-28T00:50:58;-1.00;99.90
11609;DHT22;5860;52.018;8.536;2023-02-28T00:53:25;-1.10;99.90
11609;DHT22;5860;52.018;8.536;2023-02-28T00:55:52;-1.10;99.90
11609;DHT22;5860;52.018;8.536;2023-02-28T00:58:19;-1.10;99.90
11609;DHT22;5860;52.018;8.536;2023-02-28T01:00:46;-1.30;99.90
11609;DHT22;5860;52.018;8.536;2023-02-28T01:03:17;-1.10;99.90
11609;DHT22;5860;52.018;8.536;2023-02-28T01:05:45;-1.00;99.90
11609;DHT22;5860;52.018;8.536;2023-02-28T01:08:13;-0.90;99.90
11609;DHT22;5860;52.018;8.536;2023-02-28T01:10:40;-0.90;99.90
11609;DHT22;5860;52.018;8.536;2023-02-28T01:13:07;-1.00;99.90
11609;DHT22;5860;52.018;8.536;2023-02-28T01:15:34;-1.10;99.90
11609;DHT22;5860;52.018;8.536;2023-02-28T01:18:01;-1.10;99.90
11609;DHT22;5860;52.018;8.536;2023-02-28T01:20:29;-1.10;99.90
11609;DHT22;5860;52.018;8.536;2023-02-28T01:22:56;-1.10;99.90
11609;DHT22;5860;52.018;8.536;2023-02-28T01:25:22;-1.30;99.90
11609;DHT22;5860;52.018;8.536;2023-02-28T01:27:49;-1.40;99.90
11609;DHT22;5860;52.018;8.536;2023-02-28T01:30:16;-1.50;99.90
11609;DHT22;5860;52.018;8.536;2023-02-28T01:32:43;-1.50;99.90
11609;DHT22;5860;52.018;8.536;2023-02-28T01:35:10;-1.60;99.90
11609;DHT22;5860;52.018;8.536;2023-02-28T01:37:37;-1.60;99.90
11609;DHT22;5860;52.018;8.536;2023-02-28T01:40:05;-1.60;99.90
11609;DHT22;5860;52.018;8.536;2023-02-28T01:42:32;-1.70;99.90
11609;DHT22;5860;52.018;8.536;2023-02-28T01:45:30;-1.70;99.90
11609;DHT22;5860;52.018;8.536;2023-02-28T01:48:00;-1.80;99.90
11609;DHT22;5860;52.018;8.536;2023-02-28T01:50:31;-1.80;99.90
11609;DHT22;5860;52.018;8.536;2023-02-28T01:53:05;-1.80;99.90
11609;DHT22;5860;52.018;8.536;2023-02-28T01:55:33;-1.80;99.90
11609;DHT22;5860;52.018;8.536;2023-02-28T01:58:04;-1.90;99.90
11609;DHT22;5860;52.018;8.536;2023-02-28T02:00:31;-1.90;99.90
11609;DHT22;5860;52.018;8.536;2023-02-28T02:03:06;-1.90;99.90
11609;DHT22;5860;52.018;8.536;2023-02-28T02:05:37;-1.80;99.90
11609;DHT22;5860;52.018;8.536;2023-02-28T02:08:09;-1.80;99.90
11609;DHT22;5860;52.018;8.536;2023-02-28T02:24:41;-1.80;99.90
11609;DHT22;5860;52.018;8.536;2023-02-28T02:29:57;-1.90;99.90
11609;DHT22;5860;52.018;8.536;2023-02-28T02:41:20;-1.90;99.90
11609;DHT22;5860;52.018;8.536;2023-02-28T02:44:15;-2.00;99.90
11609;DHT22;5860;52.018;8.536;2023-02-28T02:46:46;-2.10;99.90
11609;DHT22;5860;52.018;8.536;2023-02-28T02:49:19;-2.10;99.90
11609;DHT22;5860;52.018;8.536;2023-02-28T02:51:47;-2.10;99.90
11609;DHT22;5860;52.018;8.536;2023-02-28T02:54:19;-2.20;99.90
11609;DHT22;5860;52.018;8.536;2023-02-28T02:56:48;-2.20;99.90
11609;DHT22;5860;52.018;8.536;2023-02-28T02:59:21;-2.20;99.90
11609;DHT22;5860;52.018;8.536;2023-02-28T03:01:51;-2.20;99.90
11609;DHT22;5860;52.018;8.536;2023-02-28T03:04:22;-2.20;99.90
11609;DHT22;5860;52.018;8.536;2023-02-28T03:06:51;-2.30;99.90
11609;DHT22;5860;52.018;8.536;2023-02-28T03:09:22;-2.30;99.90
11609;DHT22;5860;52.018;8.536;2023-02-28T03:11:51;-2.30;99.90
11609;DHT22;5860;52.018;8.536;2023-02-28T03:23:10;-2.40;99.90
11609;DHT22;5860;52.018;8.536;2023-02-28T03:28:41;-2.50;99.90
11609;DHT22;5860;52.018;8.536;2023-02-28T03:31:30;-2.50;99.90
11609;DHT22;5860;52.018;8.536;2023-02-28T03:34:10;-2.60;99.90
11609;DHT22;5860;52.018;8.536;2023-02-28T03:36:44;-2.60;99.90
11609;DHT22;5860;52.018;8.536;2023-02-28T03:39:23;-2.60;99.90
11609;DHT22;5860;52.018;8.536;2023-02-28T03:42:27;-2.60;99.90
11609;DHT22;5860;52.018;8.536;2023-02-28T03:44:57;-2.60;99.90
11609;DHT22;5860;52.018;8.536;2023-02-28T03:47:53;-2.70;99.90
11609;DHT22;5860;52.018;8.536;2023-02-28T03:50:34;-2.60;99.90
11609;DHT22;5860;52.018;8.536;2023-02-28T03:53:12;-2.70;99.90
11609;DHT22;5860;52.018;8.536;2023-02-28T03:55:45;-2.70;99.90
11609;DHT22;5860;52.018;8.536;2023-02-28T04:00:55;-2.70;99.90
11609;DHT22;5860;52.018;8.536;2023-02-28T04:03:23;-2.80;99.90
11609;DHT22;5860;52.018;8.536;2023-02-28T04:05:53;-2.80;99.90
11609;DHT22;5860;52.018;8.536;2023-02-28T04:08:21;-2.80;99.90
11609;DHT22;5860;52.018;8.536;2023-02-28T04:11:00;-2.80;99.90
11609;DHT22;5860;52.018;8.536;2023-02-28T04:13:28;-2.80;99.90
11609;DHT22;5860;52.018;8.536;2023-02-28T04:15:55;-2.80;99.90
11609;DHT22;5860;52.018;8.536;2023-02-28T04:18:22;-2.80;99.90
11609;DHT22;5860;52.018;8.536;2023-02-28T04:20:49;-2.90;99.90
11609;DHT22;5860;52.018;8.536;2023-02-28T04:23:16;-2.90;99.90
11609;DHT22;5860;52.018;8.536;2023-02-28T04:25:43;-2.90;99.90
11609;DHT22;5860;52.018;8.536;2023-02-28T04:28:10;-2.90;99.90
11609;DHT22;5860;52.018;8.536;2023-02-28T04:30:37;-3.00;99.90
11609;DHT22;5860;52.018;8.536;2023-02-28T04:33:05;-2.90;99.90
11609;DHT22;5860;52.018;8.536;2023-02-28T04:35:32;-2.90;99.90
11609;DHT22;5860;52.018;8.536;2023-02-28T04:37:59;-2.80;99.90
11609;DHT22;5860;52.018;8.536;2023-02-28T04:40:25;-2.80;99.90
11609;DHT22;5860;52.018;8.536;2023-02-28T04:42:53;-2.80;99.90
11609;DHT22;5860;52.018;8.536;2023-02-28T04:45:19;-2.90;99.90
11609;DHT22;5860;52.018;8.536;2023-02-28T04:47:46;-3.00;99.90
11609;DHT22;5860;52.018;8.536;2023-02-28T04:50:13;-3.00;99.90
11609;DHT22;5860;52.018;8.536;2023-02-28T04:52:40;-3.00;99.90
11609;DHT22;5860;52.018;8.536;2023-02-28T04:55:07;-2.90;99.90
11609;DHT22;5860;52.018;8.536;2023-02-28T04:57:34;-2.80;99.90
11609;DHT22;5860;52.018;8.536;2023-02-28T05:00:01;-2.70;99.90
11609;DHT22;5860;52.018;8.536;2023-02-28T05:02:34;-2.80;99.90
11609;DHT22;5860;52.018;8.536;2023-02-28T05:05:02;-2.90;99.90
11609;DHT22;5860;52.018;8.536;2023-02-28T05:07:29;-3.00;99.90
11609;DHT22;5860;52.018;8.536;2023-02-28T05:09:55;-3.00;99.90
11609;DHT22;5860;52.018;8.536;2023-02-28T05:12:22;-3.10;99.90
11609;DHT22;5860;52.018;8.536;2023-02-28T05:14:49;-3.10;99.90
11609;DHT22;5860;52.018;8.536;2023-02-28T05:17:16;-3.20;99.90
11609;DHT22;5860;52.018;8.536;2023-02-28T05:19:43;-3.20;99.90
11609;DHT22;5860;52.018;8.536;2023-02-28T05:22:14;-3.10;99.90
11609;DHT22;5860;52.018;8.536;2023-02-28T05:24:43;-3.20;99.90
11609;DHT22;5860;52.018;8.536;2023-02-28T05:27:10;-3.20;99.90
11609;DHT22;5860;52.018;8.536;2023-02-28T05:29:37;-3.10;99.90
11609;DHT22;5860;52.018;8.536;2023-02-28T05:32:10;-2.90;99.90
11609;DHT22;5860;52.018;8.536;2023-02-28T05:34:39;-2.80;99.90
11609;DHT22;5860;52.018;8.536;2023-02-28T05:37:11;-2.70;99.90
11609;DHT22;5860;52.018;8.536;2023-02-28T05:39:38;-2.70;99.90
11609;DHT22;5860;52.018;8.536;2023-02-28T05:42:05;-2.70;99.90
11609;DHT22;5860;52.018;8.536;2023-02-28T05:44:33;-2.90;99.90
11609;DHT22;5860;52.018;8.536;2023-02-28T05:47:00;-3.00;99.90
11609;DHT22;5860;52.018;8.536;2023-02-28T05:49:27;-3.20;99.90
11609;DHT22;5860;52.018;8.536;2023-02-28T05:51:54;-3.30;99.90
11609;DHT22;5860;52.018;8.536;2023-02-28T05:54:21;-3.30;99.90
11609;DHT22;5860;52.018;8.536;2023-02-28T05:56:47;-3.30;99.90
11609;DHT22;5860;52.018;8.536;2023-02-28T05:59:14;-3.30;99.90
11609;DHT22;5860;52.018;8.536;2023-02-28T06:01:43;-3.30;99.90
11609;DHT22;5860;52.018;8.536;2023-02-28T06:04:17;-3.30;99.90
11609;DHT22;5860;52.018;8.536;2023-02-28T06:06:57;-3.20;99.90
11609;DHT22;5860;52.018;8.536;2023-02-28T06:09:25;-3.20;99.90
11609;DHT22;5860;52.018;8.536;2023-02-28T06:11:52;-3.20;99.90
11609;DHT22;5860;52.018;8.536;2023-02-28T06:14:19;-3.30;99.90
11609;DHT22;5860;52.018;8.536;2023-02-28T06:16:47;-3.20;99.90
11609;DHT22;5860;52.018;8.536;2023-02-28T06:19:14;-3.20;99.90
11609;DHT22;5860;52.018;8.536;2023-02-28T06:21:42;-3.10;99.90
11609;DHT22;5860;52.018;8.536;2023-02-28T06:24:09;-3.20;99.90
11609;DHT22;5860;52.018;8.536;2023-02-28T06:26:36;-3.10;99.90
11609;DHT22;5860;52.018;8.536;2023-02-28T06:29:03;-3.00;99.90
11609;DHT22;5860;52.018;8.536;2023-02-28T06:31:30;-3.00;99.90
11609;DHT22;5860;52.018;8.536;2023-02-28T06:33:57;-3.00;99.90
11609;DHT22;5860;52.018;8.536;2023-02-28T06:36:24;-3.00;99.90
11609;DHT22;5860;52.018;8.536;2023-02-28T06:38:51;-3.00;99.90
11609;DHT22;5860;52.018;8.536;2023-02-28T06:41:25;-2.90;99.90
11609;DHT22;5860;52.018;8.536;2023-02-28T06:43:54;-2.90;99.90
11609;DHT22;5860;52.018;8.536;2023-02-28T06:46:21;-2.90;99.90
11609;DHT22;5860;52.018;8.536;2023-02-28T06:48:49;-2.80;99.90
11609;DHT22;5860;52.018;8.536;2023-02-28T06:51:20;-2.70;99.90
11609;DHT22;5860;52.018;8.536;2023-02-28T06:53:49;-2.60;99.90
11609;DHT22;5860;52.018;8.536;2023-02-28T06:56:16;-2.50;99.90
11609;DHT22;5860;52.018;8.536;2023-02-28T06:58:48;-2.50;99.90
11609;DHT22;5860;52.018;8.536;2023-02-28T07:01:16;-2.40;99.90
11609;DHT22;5860;52.018;8.536;2023-02-28T07:03:43;-2.30;99.90
11609;DHT22;5860;52.018;8.536;2023-02-28T07:06:10;-2.20;99.90
11609;DHT22;5860;52.018;8.536;2023-02-28T07:08:37;-2.10;99.90
11609;DHT22;5860;52.018;8.536;2023-02-28T07:11:05;-2.00;99.90
11609;DHT22;5860;52.018;8.536;2023-02-28T07:13:32;-1.90;99.90
11609;DHT22;5860;52.018;8.536;2023-02-28T07:16:02;-1.80;99.90
11609;DHT22;5860;52.018;8.536;2023-02-28T07:18:29;-1.70;99.90
11609;DHT22;5860;52.018;8.536;2023-02-28T07:20:57;-1.60;99.90
11609;DHT22;5860;52.018;8.536;2023-02-28T07:23:24;-1.50;99.90
11609;DHT22;5860;52.018;8.536;2023-02-28T07:25:51;-1.40;99.90
11609;DHT22;5860;52.018;8.536;2023-02-28T07:28:18;-1.40;99.90
11609;DHT22;5860;52.018;8.536;2023-02-28T07:30:45;-1.30;99.90
11609;DHT22;5860;52.018;8.536;2023-02-28T07:33:12;-1.30;99.90
11609;DHT22;5860;52.018;8.536;2023-02-28T07:35:39;-1.30;99.90
11609;DHT22;5860;52.018;8.536;2023-02-28T07:38:07;-1.20;99.90
11609;DHT22;5860;52.018;8.536;2023-02-28T07:40:35;-1.10;99.90
11609;DHT22;5860;52.018;8.536;2023-02-28T07:43:03;-1.10;99.90
11609;DHT22;5860;52.018;8.536;2023-02-28T07:45:31;-1.00;99.90
11609;DHT22;5860;52.018;8.536;2023-02-28T07:48:01;-0.90;99.90
11609;DHT22;5860;52.018;8.536;2023-02-28T07:50:28;-0.90;99.90
11609;DHT22;5860;52.018;8.536;2023-02-28T07:52:58;-0.80;99.90
11609;DHT22;5860;52.018;8.536;2023-02-28T07:55:26;-0.80;99.90
11609;DHT22;5860;52.018;8.536;2023-02-28T07:57:53;-0.70;99.90
11609;DHT22;5860;52.018;8.536;2023-02-28T08:00:20;-0.60;99.90
11609;DHT22;5860;52.018;8.536;2023-02-28T08:02:48;-0.60;99.90
11609;DHT22;5860;52.018;8.536;2023-02-28T08:05:15;-0.50;99.90
11609;DHT22;5860;52.018;8.536;2023-02-28T08:07:45;-0.40;99.90
11609;DHT22;5860;52.018;8.536;2023-02-28T08:10:14;-0.40;99.90
11609;DHT22;5860;52.018;8.536;2023-02-28T08:12:41;-0.30;99.90
11609;DHT22;5860;52.018;8.536;2023-02-28T08:15:08;-0.20;99.90
11609;DHT22;5860;52.018;8.536;2023-02-28T08:17:36;-0.10;99.90
11609;DHT22;5860;52.018;8.536;2023-02-28T08:20:03;-0.10;99.90
11609;DHT22;5860;52.018;8.536;2023-02-28T08:22:30;0.00;99.90
11609;DHT22;5860;52.018;8.536;2023-02-28T08:24:58;0.10;99.90
11609;DHT22;5860;52.018;8.536;2023-02-28T08:27:24;0.10;99.90
11609;DHT22;5860;52.018;8.536;2023-02-28T08:29:52;0.10;99.90
11609;DHT22;5860;52.018;8.536;2023-02-28T08:32:19;0.20;99.90
11609;DHT22;5860;52.018;8.536;2023-02-28T08:34:56;0.30;99.90
11609;DHT22;5860;52.018;8.536;2023-02-28T08:37:23;0.30;99.90
11609;DHT22;5860;52.018;8.536;2023-02-28T08:39:50;0.40;99.90
11609;DHT22;5860;52.018;8.536;2023-02-28T08:42:22;0.50;99.90
11609;DHT22;5860;52.018;8.536;2023-02-28T08:44:49;0.60;99.90
11609;DHT22;5860;52.018;8.536;2023-02-28T08:47:16;0.60;99.90
11609;DHT22;5860;52.018;8.536;2023-02-28T08:49:43;0.70;99.90
11609;DHT22;5860;52.018;8.536;2023-02-28T08:52:11;0.70;99.90
11609;DHT22;5860;52.018;8.536;2023-02-28T08:54:37;0.90;99.90
11609;DHT22;5860;52.018;8.536;2023-02-28T08:57:05;0.90;99.90
11609;DHT22;5860;52.018;8.536;2023-02-28T08:59:32;0.90;99.90
11609;DHT22;5860;52.018;8.536;2023-02-28T09:01:59;1.00;99.90
11609;DHT22;5860;52.018;8.536;2023-02-28T09:04:26;1.00;99.90
11609;DHT22;5860;52.018;8.536;2023-02-28T09:06:54;1.10;99.90
11609;DHT22;5860;52.018;8.536;2023-02-28T09:09:21;1.10;99.90
11609;DHT22;5860;52.018;8.536;2023-02-28T09:11:48;1.10;99.90
11609;DHT22;5860;52.018;8.536;2023-02-28T09:14:17;1.30;99.90
11609;DHT22;5860;52.018;8.536;2023-02-28T09:16:45;1.30;99.90
11609;DHT22;5860;52.018;8.536;2023-02-28T09:19:13;1.40;99.90
11609;DHT22;5860;52.018;8.536;2023-02-28T09:21:41;1.60;99.90
11609;DHT22;5860;52.018;8.536;2023-02-28T09:24:09;1.50;99.90
11609;DHT22;5860;52.018;8.536;2023-02-28T09:26:38;1.60;99.90
11609;DHT22;5860;52.018;8.536;2023-02-28T09:29:21;1.70;99.90
11609;DHT22;5860;52.018;8.536;2023-02-28T09:31:49;1.90;99.90
11609;DHT22;5860;52.018;8.536;2023-02-28T09:34:17;1.90;99.90
11609;DHT22;5860;52.018;8.536;2023-02-28T09:36:45;2.00;99.90
11609;DHT22;5860;52.018;8.536;2023-02-28T09:39:14;2.10;99.90
11609;DHT22;5860;52.018;8.536;2023-02-28T09:41:44;2.10;99.90
11609;DHT22;5860;52.018;8.536;2023-02-28T09:44:25;2.20;99.90
11609;DHT22;5860;52.018;8.536;2023-02-28T09:47:08;2.20;99.90
11609;DHT22;5860;52.018;8.536;2023-02-28T09:49:42;2.40;99.90
11609;DHT22;5860;52.018;8.536;2023-02-28T09:52:14;2.50;99.90
11609;DHT22;5860;52.018;8.536;2023-02-28T09:54:42;2.50;99.90
11609;DHT22;5860;52.018;8.536;2023-02-28T09:57:37;2.60;99.90
11609;DHT22;5860;52.018;8.536;2023-02-28T10:05:29;2.60;99.90
11609;DHT22;5860;52.018;8.536;2023-02-28T10:08:16;2.70;99.90
11609;DHT22;5860;52.018;8.536;2023-02-28T10:10:58;2.80;99.90
11609;DHT22;5860;52.018;8.536;2023-02-28T10:13:53;2.80;99.90
11609;DHT22;5860;52.018;8.536;2023-02-28T10:16:31;3.10;99.90
11609;DHT22;5860;52.018;8.536;2023-02-28T10:19:09;3.10;99.90
11609;DHT22;5860;52.018;8.536;2023-02-28T10:21:45;3.20;99.90
11609;DHT22;5860;52.018;8.536;2023-02-28T10:24:47;3.20;99.90
11609;DHT22;5860;52.018;8.536;2023-02-28T10:27:17;3.30;99.90
11609;DHT22;5860;52.018;8.536;2023-02-28T10:29:54;3.50;99.90
11609;DHT22;5860;52.018;8.536;2023-02-28T10:32:33;3.90;99.90
11609;DHT22;5860;52.018;8.536;2023-02-28T10:37:38;3.70;99.90
11609;DHT22;5860;52.018;8.536;2023-02-28T10:40:07;3.90;99.90
11609;DHT22;5860;52.018;8.536;2023-02-28T10:45:28;4.10;99.90
11609;DHT22;5860;52.018;8.536;2023-02-28T11:01:18;3.80;99.90
11609;DHT22;5860;52.018;8.536;2023-02-28T11:03:46;3.80;99.90
11609;DHT22;5860;52.018;8.536;2023-02-28T11:06:27;3.80;99.90
11609;DHT22;5860;52.018;8.536;2023-02-28T11:08:59;3.70;99.90
11609;DHT22;5860;52.018;8.536;2023-02-28T11:11:29;3.60;99.90
11609;DHT22;5860;52.018;8.536;2023-02-28T11:14:04;3.50;99.90
11609;DHT22;5860;52.018;8.536;2023-02-28T11:16:34;3.50;99.90
11609;DHT22;5860;52.018;8.536;2023-02-28T11:19:04;3.40;99.90
11609;DHT22;5860;52.018;8.536;2023-02-28T11:21:34;3.30;99.90
11609;DHT22;5860;52.018;8.536;2023-02-28T11:26:49;3.30;99.90
11609;DHT22;5860;52.018;8.536;2023-02-28T11:29:31;3.30;99.90
11609;DHT22;5860;52.018;8.536;2023-02-28T11:34:32;3.70;99.90
11609;DHT22;5860;52.018;8.536;2023-02-28T11:37:01;3.80;99.90
11609;DHT22;5860;52.018;8.536;2023-02-28T11:39:32;3.90;99.90
11609;DHT22;5860;52.018;8.536;2023-02-28T11:48:03;3.60;99.90
11609;DHT22;5860;52.018;8.536;2023-02-28T11:50:55;3.60;99.90
11609;DHT22;5860;52.018;8.536;2023-02-28T11:56:42;3.60;99.90
11609;DHT22;5860;52.018;8.536;2023-02-28T11:59:55;4.00;99.90
11609;DHT22;5860;52.018;8.536;2023-02-28T12:05:49;4.20;99.90
11609;DHT22;5860;52.018;8.536;2023-02-28T12:22:09;4.20;99.90
11609;DHT22;5860;52.018;8.536;2023-02-28T12:27:29;4.20;99.90
11609;DHT22;5860;52.018;8.536;2023-02-28T12:32:42;4.10;99.90
11609;DHT22;5860;52.018;8.536;2023-02-28T12:35:14;4.20;99.90
11609;DHT22;5860;52.018;8.536;2023-02-28T12:38:02;4.20;99.90
11609;DHT22;5860;52.018;8.536;2023-02-28T12:40:59;4.30;99.90
11609;DHT22;5860;52.018;8.536;2023-02-28T12:43:32;4.30;99.90
11609;DHT22;5860;52.018;8.536;2023-02-28T12:46:25;4.50;99.90
11609;DHT22;5860;52.018;8.536;2023-02-28T12:48:57;4.30;99.90
11609;DHT22;5860;52.018;8.536;2023-02-28T12:51:26;4.40;99.90
11609;DHT22;5860;52.018;8.536;2023-02-28T12:59:27;4.40;99.90
11609;DHT22;5860;52.018;8.536;2023-02-28T13:10:05;4.80;99.90
11609;DHT22;5860;52.018;8.536;2023-02-28T13:12:35;4.60;99.90
11609;DHT22;5860;52.018;8.536;2023-02-28T13:15:16;4.50;99.90
11609;DHT22;5860;52.018;8.536;2023-02-28T13:17:52;4.40;99.90
11609;DHT22;5860;52.018;8.536;2023-02-28T13:20:23;4.50;99.90
11609;DHT22;5860;52.018;8.536;2023-02-28T13:22:53;4.50;99.90
11609;DHT22;5860;52.018;8.536;2023-02-28T13:27:51;4.40;99.90
11609;DHT22;5860;52.018;8.536;2023-02-28T13:33:24;4.70;99.90
11609;DHT22;5860;52.018;8.536;2023-02-28T13:47:15;4.70;99.90
11609;DHT22;5860;52.018;8.536;2023-02-28T13:52:10;4.80;99.90
11609;DHT22;5860;52.018;8.536;2023-02-28T13:54:50;4.90;99.90
11609;DHT22;5860;52.018;8.536;2023-02-28T14:05:26;4.80;99.90
11609;DHT22;5860;52.018;8.536;2023-02-28T14:07:58;4.70;99.90
11609;DHT22;5860;52.018;8.536;2023-02-28T14:10:28;4.70;99.90
11609;DHT22;5860;52.018;8.536;2023-02-28T14:13:03;4.70;99.90
11609;DHT22;5860;52.018;8.536;2023-02-28T14:15:40;4.80;99.90
11609;DHT22;5860;52.018;8.536;2023-02-28T14:21:24;4.60;99.90
11609;DHT22;5860;52.018;8.536;2023-02-28T14:24:10;4.70;99.90
11609;DHT22;5860;52.018;8.536;2023-02-28T14:29:42;4.50;99.90
11609;DHT22;5860;52.018;8.536;2023-02-28T14:35:50;4.50;99.90
11609;DHT22;5860;52.018;8.536;2023-02-28T14:38:25;4.60;99.90
11609;DHT22;5860;52.018;8.536;2023-02-28T14:40:54;4.40;99.90
11609;DHT22;5860;52.018;8.536;2023-02-28T14:43:24;4.40;99.90
11609;DHT22;5860;52.018;8.536;2023-02-28T14:45:55;4.30;99.90
11609;DHT22;5860;52.018;8.536;2023-02-28T14:48:24;4.40;99.90
11609;DHT22;5860;52.018;8.536;2023-02-28T14:51:00;4.40;99.90
11609;DHT22;5860;52.018;8.536;2023-02-28T14:53:30;4.40;99.90
11609;DHT22;5860;52.018;8.536;2023-02-28T14:56:01;4.30;99.90
11609;DHT22;5860;52.018;8.536;2023-02-28T14:58:31;4.40;99.90
11609;DHT22;5860;52.018;8.536;2023-02-28T15:01:01;4.50;99.90
11609;DHT22;5860;52.018;8.536;2023-02-28T15:03:37;4.50;99.90
11609;DHT22;5860;52.018;8.536;2023-02-28T15:06:16;4.40;99.90
11609;DHT22;5860;52.018;8.536;2023-02-28T15:08:44;4.40;99.90
11609;DHT22;5860;52.018;8.536;2023-02-28T15:11:14;4.30;99.90
11609;DHT22;5860;52.018;8.536;2023-02-28T15:13:53;4.50;99.90
11609;DHT22;5860;52.018;8.536;2023-02-28T15:16:30;4.50;99.90
11609;DHT22;5860;52.018;8.536;2023-02-28T15:19:05;4.50;99.90
11609;DHT22;5860;52.018;8.536;2023-02-28T15:21:36;4.40;99.90
11609;DHT22;5860;52.018;8.536;2023-02-28T15:24:07;4.40;99.90
11609;DHT22;5860;52.018;8.536;2023-02-28T15:26:43;4.40;99.90
11609;DHT22;5860;52.018;8.536;2023-02-28T15:29:16;4.50;99.90
11609;DHT22;5860;52.018;8.536;2023-02-28T15:31:46;4.40;99.90
11609;DHT22;5860;52.018;8.536;2023-02-28T15:34:39;4.40;99.90
11609;DHT22;5860;52.018;8.536;2023-02-28T15:40:22;4.30;99.90
11609;DHT22;5860;52.018;8.536;2023-02-28T15:45:47;4.20;99.90
11609;DHT22;5860;52.018;8.536;2023-02-28T15:48:36;4.30;99.90
11609;DHT22;5860;52.018;8.536;2023-02-28T15:51:30;4.20;99.90
11609;DHT22;5860;52.018;8.536;2023-02-28T15:54:01;4.10;99.90
11609;DHT22;5860;52.018;8.536;2023-02-28T15:56:34;4.10;99.90
11609;DHT22;5860;52.018;8.536;2023-02-28T15:59:07;4.10;99.90
11609;DHT22;5860;52.018;8.536;2023-02-28T16:01:38;4.10;99.90
11609;DHT22;5860;52.018;8.536;2023-02-28T16:04:14;4.10;99.90
11609;DHT22;5860;52.018;8.536;2023-02-28T16:09:14;4.00;99.90
11609;DHT22;5860;52.018;8.536;2023-02-28T16:11:49;4.00;99.90
11609;DHT22;5860;52.018;8.536;2023-02-28T16:14:23;4.00;99.90
11609;DHT22;5860;52.018;8.536;2023-02-28T16:16:55;3.90;99.90
11609;DHT22;5860;52.018;8.536;2023-02-28T16:19:22;3.80;99.90
11609;DHT22;5860;52.018;8.536;2023-02-28T16:21:50;3.80;99.90
11609;DHT22;5860;52.018;8.536;2023-02-28T16:24:18;3.80;99.90
11609;DHT22;5860;52.018;8.536;2023-02-28T16:26:47;3.80;99.90
11609;DHT22;5860;52.018;8.536;2023-02-28T16:29:33;3.80;99.90
11609;DHT22;5860;52.018;8.536;2023-02-28T16:32:01;3.70;99.90
11609;DHT22;5860;52.018;8.536;2023-02-28T16:34:30;3.70;99.90
11609;DHT22;5860;52.018;8.536;2023-02-28T16:36:58;3.70;99.90
11609;DHT22;5860;52.018;8.536;2023-02-28T16:39:25;3.70;99.90
11609;DHT22;5860;52.018;8.536;2023-02-28T16:41:52;3.60;99.90
11609;DHT22;5860;52.018;8.536;2023-02-28T16:46:56;3.60;99.90
11609;DHT22;5860;52.018;8.536;2023-02-28T16:49:23;3.50;99.90
11609;DHT22;5860;52.018;8.536;2023-02-28T16:51:50;3.40;99.90
11609;DHT22;5860;52.018;8.536;2023-02-28T16:54:17;3.40;99.90
11609;DHT22;5860;52.018;8.536;2023-02-28T16:56:46;3.30;99.90
11609;DHT22;5860;52.018;8.536;2023-02-28T16:59:22;3.30;99.90
11609;DHT22;5860;52.018;8.536;2023-02-28T17:01:51;3.20;99.90
11609;DHT22;5860;52.018;8.536;2023-02-28T17:04:18;3.20;99.90
11609;DHT22;5860;52.018;8.536;2023-02-28T17:06:46;3.20;99.90
11609;DHT22;5860;52.018;8.536;2023-02-28T17:09:20;3.10;99.90
11609;DHT22;5860;52.018;8.536;2023-02-28T17:11:56;3.00;99.90
11609;DHT22;5860;52.018;8.536;2023-02-28T17:14:23;3.00;99.90
11609;DHT22;5860;52.018;8.536;2023-02-28T17:16:50;3.00;99.90
11609;DHT22;5860;52.018;8.536;2023-02-28T17:19:17;3.00;99.90
11609;DHT22;5860;52.018;8.536;2023-02-28T17:21:44;2.80;99.90
11609;DHT22;5860;52.018;8.536;2023-02-28T17:24:11;2.90;99.90
11609;DHT22;5860;52.018;8.536;2023-02-28T17:26:44;2.80;99.90
11609;DHT22;5860;52.018;8.536;2023-02-28T17:29:20;2.80;99.90
11609;DHT22;5860;52.018;8.536;2023-02-28T17:31:48;2.70;99.90
11609;DHT22;5860;52.018;8.536;2023-02-28T17:34:15;2.60;99.90
11609;DHT22;5860;52.018;8.536;2023-02-28T17:36:48;2.60;99.90
11609;DHT22;5860;52.018;8.536;2023-02-28T17:39:16;2.60;99.90
11609;DHT22;5860;52.018;8.536;2023-02-28T17:41:51;2.50;99.90
11609;DHT22;5860;52.018;8.536;2023-02-28T17:44:19;2.50;99.90
11609;DHT22;5860;52.018;8.536;2023-02-28T17:46:47;2.50;99.90
11609;DHT22;5860;52.018;8.536;2023-02-28T17:49:14;2.30;99.90
11609;DHT22;5860;52.018;8.536;2023-02-28T17:51:41;2.30;99.90
11609;DHT22;5860;52.018;8.536;2023-02-28T17:54:09;2.30;99.90
11609;DHT22;5860;52.018;8.536;2023-02-28T17:56:36;2.30;99.90
11609;DHT22;5860;52.018;8.536;2023-02-28T17:59:03;2.40;99.90
11609;DHT22;5860;52.018;8.536;2023-02-28T18:01:31;2.30;99.90
11609;DHT22;5860;52.018;8.536;2023-02-28T18:03:58;2.30;99.90
11609;DHT22;5860;52.018;8.536;2023-02-28T18:06:37;2.20;99.90
11609;DHT22;5860;52.018;8.536;2023-02-28T18:09:16;2.20;99.90
11609;DHT22;5860;52.018;8.536;2023-02-28T18:11:43;2.10;99.90
11609;DHT22;5860;52.018;8.536;2023-02-28T18:14:16;2.10;99.90
11609;DHT22;5860;52.018;8.536;2023-02-28T18:16:45;2.10;99.90
11609;DHT22;5860;52.018;8.536;2023-02-28T18:19:12;2.10;99.90
11609;DHT22;5860;52.018;8.536;2023-02-28T18:21:51;2.00;99.90
11609;DHT22;5860;52.018;8.536;2023-02-28T18:24:24;2.10;99.90
11609;DHT22;5860;52.018;8.536;2023-02-28T18:26:51;1.90;99.90
11609;DHT22;5860;52.018;8.536;2023-02-28T18:29:24;2.00;99.90
11609;DHT22;5860;52.018;8.536;2023-02-28T18:31:52;1.80;99.90
11609;DHT22;5860;52.018;8.536;2023-02-28T18:34:21;1.90;99.90
11609;DHT22;5860;52.018;8.536;2023-02-28T18:36:50;1.90;99.90
11609;DHT22;5860;52.018;8.536;2023-02-28T18:39:18;1.90;99.90
11609;DHT22;5860;52.018;8.536;2023-02-28T18:41:45;1.90;99.90
11609;DHT22;5860;52.018;8.536;2023-02-28T18:44:12;1.80;99.90
11609;DHT22;5860;52.018;8.536;2023-02-28T18:46:46;1.70;99.90
11609;DHT22;5860;52.018;8.536;2023-02-28T18:49:13;1.70;99.90
11609;DHT22;5860;52.018;8.536;2023-02-28T18:51:43;1.60;99.90
11609;DHT22;5860;52.018;8.536;2023-02-28T18:54:14;1.70;99.90
11609;DHT22;5860;52.018;8.536;2023-02-28T18:56:41;1.70;99.90
11609;DHT22;5860;52.018;8.536;2023-02-28T18:59:10;1.60;99.90
11609;DHT22;5860;52.018;8.536;2023-02-28T19:01:39;1.60;99.90